createdAt,value
2018-12-18T00:00:20.285Z,64.50
2018-12-18T00:02:48.005Z,66.83
2018-12-18T00:05:20.980Z,73.47
2018-12-18T00:07:48.429Z,74.53
2018-12-18T00:10:15.901Z,77.13
2018-12-18T00:12:43.351Z,79.72
2018-12-18T00:15:10.823Z,81.57
2018-12-18T00:17:38.272Z,89.30
2018-12-18T00:20:06.001Z,97.03
2018-12-18T00:22:33.492Z,106.17
2018-12-18T00:25:00.961Z,88.03
2018-12-18T00:27:28.416Z,90.83
2018-12-18T00:29:55.861Z,83.07
2018-12-18T00:32:23.324Z,78.07
2018-12-18T00:34:50.765Z,89.30
2018-12-18T00:37:18.302Z,84.20
2018-12-18T00:39:46.003Z,88.33
2018-12-18T00:42:13.488Z,106.90
2018-12-18T00:44:40.948Z,79.77
2018-12-18T00:47:08.398Z,97.77
2018-12-18T00:49:35.845Z,86.47
2018-12-18T00:52:03.305Z,85.67
2018-12-18T00:54:30.787Z,72.50
2018-12-18T00:56:58.246Z,80.83
2018-12-18T00:59:25.706Z,76.83
2018-12-18T01:01:58.778Z,71.22
2018-12-18T01:04:26.234Z,69.30
2018-12-18T01:06:54.048Z,70.62
2018-12-18T01:09:21.703Z,64.70
2018-12-18T01:11:49.886Z,72.37
2018-12-18T01:14:17.339Z,78.80
2018-12-18T01:16:44.801Z,77.20
2018-12-18T01:19:12.244Z,63.05
2018-12-18T01:21:39.700Z,58.60
2018-12-18T01:24:07.176Z,61.43
2018-12-18T01:26:34.621Z,66.87
2018-12-18T01:29:02.092Z,77.03
2018-12-18T01:31:29.545Z,61.53
2018-12-18T01:33:59.388Z,64.95
2018-12-18T01:36:26.481Z,54.77
2018-12-18T01:38:53.942Z,59.73
2018-12-18T01:41:21.382Z,65.00
2018-12-18T01:43:48.849Z,59.90
2018-12-18T01:46:16.296Z,62.43
2018-12-18T01:48:43.750Z,63.80
2018-12-18T01:51:11.193Z,50.20
2018-12-18T01:53:38.658Z,61.75
2018-12-18T01:56:06.114Z,61.10
2018-12-18T01:58:33.574Z,54.13
2018-12-18T02:01:01.027Z,69.03
2018-12-18T02:03:28.502Z,59.50
2018-12-18T02:05:56.338Z,55.98
2018-12-18T02:08:23.798Z,61.70
2018-12-18T02:10:51.247Z,52.57
2018-12-18T02:13:18.702Z,63.63
2018-12-18T02:15:46.173Z,56.20
2018-12-18T02:18:13.626Z,56.23
2018-12-18T02:20:41.094Z,59.37
2018-12-18T02:23:08.546Z,51.50
2018-12-18T02:25:36.005Z,57.37
2018-12-18T02:28:03.457Z,59.87
2018-12-18T02:30:31.298Z,60.50
2018-12-18T02:32:58.751Z,63.53
2018-12-18T02:35:26.229Z,68.03
2018-12-18T02:37:53.785Z,51.60
2018-12-18T02:43:51.351Z,59.27
2018-12-18T02:46:18.905Z,47.20
2018-12-18T02:48:46.359Z,52.00
2018-12-18T02:51:13.823Z,62.60
2018-12-18T02:53:41.279Z,55.87
2018-12-18T02:56:08.743Z,53.30
2018-12-18T02:58:36.196Z,61.97
2018-12-18T03:01:03.665Z,55.70
2018-12-18T03:03:31.154Z,58.70
2018-12-18T03:05:58.610Z,52.17
2018-12-18T03:08:26.061Z,53.50
2018-12-18T03:10:53.526Z,59.13
2018-12-18T03:13:20.982Z,51.23
2018-12-18T03:15:48.449Z,48.80
2018-12-18T03:18:15.909Z,51.00
2018-12-18T03:20:43.362Z,48.67
2018-12-18T03:23:10.826Z,52.13
2018-12-18T03:25:38.283Z,50.27
2018-12-18T03:28:05.817Z,56.20
2018-12-18T03:30:33.264Z,62.23
2018-12-18T03:33:00.811Z,55.63
2018-12-18T03:35:28.342Z,54.63
2018-12-18T03:37:55.813Z,55.90
2018-12-18T03:40:23.257Z,60.70
2018-12-18T03:42:50.717Z,54.13
2018-12-18T03:45:18.165Z,52.73
2018-12-18T03:47:45.629Z,50.85
2018-12-18T03:50:13.081Z,62.60
2018-12-18T03:52:40.546Z,65.47
2018-12-18T03:55:08.067Z,48.73
2018-12-18T03:57:35.543Z,49.40
2018-12-18T04:00:04.079Z,59.53
2018-12-18T04:02:31.538Z,56.47
2018-12-18T04:04:58.987Z,57.60
2018-12-18T04:07:26.438Z,55.90
2018-12-18T04:09:53.901Z,60.73
2018-12-18T04:12:21.635Z,47.90
2018-12-18T04:14:49.279Z,69.43
2018-12-18T04:17:16.745Z,54.50
2018-12-18T04:19:44.226Z,48.57
2018-12-18T04:22:12.548Z,54.25
2018-12-18T04:24:40.069Z,56.87
2018-12-18T04:27:07.517Z,47.10
2018-12-18T04:29:34.978Z,63.90
2018-12-18T04:32:02.420Z,50.07
2018-12-18T04:34:29.915Z,50.38
2018-12-18T04:36:57.440Z,49.20
2018-12-18T04:39:24.909Z,41.50
2018-12-18T04:41:52.356Z,38.67
2018-12-18T04:44:19.831Z,40.98
2018-12-18T04:46:49.286Z,48.20
2018-12-18T04:49:16.853Z,39.33
2018-12-18T04:51:44.306Z,50.70
2018-12-18T04:54:11.820Z,53.10
2018-12-18T04:56:39.256Z,45.97
2018-12-18T04:59:06.701Z,41.65
2018-12-18T05:01:34.164Z,43.67
2018-12-18T05:04:01.621Z,47.77
2018-12-18T05:06:29.407Z,45.87
2018-12-18T05:08:56.850Z,41.33
2018-12-18T05:11:24.313Z,49.13
2018-12-18T05:13:51.766Z,48.93
2018-12-18T05:16:19.228Z,51.40
2018-12-18T05:18:46.679Z,45.53
2018-12-18T05:21:14.158Z,44.53
2018-12-18T05:23:41.620Z,51.43
2018-12-18T05:26:09.082Z,46.50
2018-12-18T05:28:36.539Z,46.15
2018-12-18T05:31:04.001Z,55.50
2018-12-18T05:33:31.464Z,54.43
2018-12-18T05:35:58.934Z,47.83
2018-12-18T05:38:26.378Z,49.87
2018-12-18T05:40:53.922Z,49.27
2018-12-18T05:43:21.449Z,53.53
2018-12-18T05:45:48.907Z,68.80
2018-12-18T05:48:16.370Z,44.63
2018-12-18T05:50:43.820Z,48.73
2018-12-18T05:53:11.286Z,57.75
2018-12-18T05:55:38.761Z,56.63
2018-12-18T05:58:06.241Z,48.40
2018-12-18T06:00:33.687Z,59.80
2018-12-18T06:03:01.159Z,57.27
2018-12-18T06:05:28.594Z,60.17
2018-12-18T06:07:56.181Z,59.18
2018-12-18T06:10:24.630Z,50.93
2018-12-18T06:12:52.117Z,53.93
2018-12-18T06:15:19.554Z,48.30
2018-12-18T06:17:47.266Z,56.97
2018-12-18T06:20:14.694Z,61.77
2018-12-18T06:22:42.484Z,57.90
2018-12-18T06:25:10.119Z,62.53
2018-12-18T06:27:37.722Z,49.67
2018-12-18T06:30:07.106Z,63.63
2018-12-18T06:32:34.709Z,76.30
2018-12-18T06:35:02.140Z,61.13
2018-12-18T06:37:30.023Z,55.67
2018-12-18T06:39:57.459Z,63.87
2018-12-18T06:42:24.901Z,59.80
2018-12-18T06:44:52.578Z,54.45
2018-12-18T06:47:20.025Z,55.57
2018-12-18T06:49:47.621Z,210.15
2018-12-18T06:52:15.058Z,105.07
2018-12-18T06:54:42.619Z,71.85
2018-12-18T06:57:10.056Z,60.20
2018-12-18T06:59:38.089Z,55.03
2018-12-18T07:02:05.506Z,58.57
2018-12-18T07:04:33.300Z,67.43
2018-12-18T07:07:00.732Z,55.33
2018-12-18T07:09:29.114Z,67.15
2018-12-18T07:11:56.552Z,67.73
2018-12-18T07:14:24.116Z,54.67
2018-12-18T07:16:51.547Z,67.13
2018-12-18T07:19:19.291Z,69.40
2018-12-18T07:21:46.728Z,67.07
2018-12-18T07:24:14.436Z,70.67
2018-12-18T07:26:41.920Z,50.63
2018-12-18T07:29:09.348Z,55.47
2018-12-18T07:31:37.197Z,49.40
2018-12-18T07:34:04.626Z,54.70
2018-12-18T07:36:32.171Z,52.73
2018-12-18T07:38:59.674Z,58.30
2018-12-18T07:41:27.200Z,69.80
2018-12-18T07:43:54.633Z,53.30
2018-12-18T07:46:22.572Z,52.67
2018-12-18T07:48:50.025Z,59.10
2018-12-18T07:51:17.799Z,58.37
2018-12-18T07:53:45.231Z,53.30
2018-12-18T07:56:13.029Z,63.87
2018-12-18T07:58:40.458Z,47.05
2018-12-18T08:01:08.015Z,49.33
2018-12-18T08:03:35.486Z,61.13
2018-12-18T08:06:02.956Z,59.77
2018-12-18T08:08:30.417Z,56.73
2018-12-18T08:10:57.885Z,49.07
2018-12-18T08:13:25.342Z,58.73
2018-12-18T08:15:52.788Z,68.62
2018-12-18T08:18:20.246Z,56.43
2018-12-18T08:20:47.694Z,45.43
2018-12-18T08:23:15.171Z,55.00
2018-12-18T08:25:42.614Z,43.53
2018-12-18T08:28:10.079Z,52.47
2018-12-18T08:30:37.529Z,52.33
2018-12-18T08:33:04.997Z,64.60
2018-12-18T08:35:36.465Z,62.23
2018-12-18T08:38:01.943Z,54.07
2018-12-18T08:40:29.387Z,62.77
2018-12-18T08:42:56.859Z,58.30
2018-12-18T08:45:24.313Z,65.33
2018-12-18T08:47:51.808Z,62.53
2018-12-18T08:50:19.277Z,50.67
2018-12-18T08:52:46.745Z,50.27
2018-12-18T08:55:14.191Z,59.00
2018-12-18T08:57:42.162Z,56.63
2018-12-18T09:00:09.708Z,53.20
2018-12-18T09:02:37.170Z,52.30
2018-12-18T09:05:05.518Z,62.30
2018-12-18T09:07:32.969Z,44.93
2018-12-18T09:10:00.432Z,60.03
2018-12-18T09:12:27.873Z,47.77
2018-12-18T09:14:57.781Z,48.63
2018-12-18T09:17:30.969Z,60.97
2018-12-18T09:19:58.464Z,59.07
2018-12-18T09:22:25.905Z,61.45
2018-12-18T09:24:53.366Z,78.57
2018-12-18T09:27:20.814Z,48.07
2018-12-18T09:29:48.270Z,51.17
2018-12-18T09:32:15.722Z,56.80
2018-12-18T09:34:43.189Z,59.13
2018-12-18T09:37:10.657Z,52.55
2018-12-18T09:39:42.943Z,58.50
2018-12-18T09:42:16.035Z,63.23
2018-12-18T09:44:43.501Z,57.00
2018-12-18T09:47:11.166Z,61.70
2018-12-18T09:49:38.778Z,55.63
2018-12-18T09:52:06.277Z,72.93
2018-12-18T09:54:33.790Z,67.27
2018-12-18T09:57:01.221Z,70.03
2018-12-18T09:59:29.063Z,74.87
2018-12-18T10:01:56.834Z,61.30
2018-12-18T10:04:24.292Z,66.50
2018-12-18T10:06:51.757Z,55.33
2018-12-18T10:09:19.201Z,57.30
2018-12-18T10:11:46.671Z,63.60
2018-12-18T10:14:14.126Z,60.63
2018-12-18T10:16:41.595Z,65.03
2018-12-18T10:19:09.045Z,78.00
2018-12-18T10:21:36.510Z,75.53
2018-12-18T10:24:04.125Z,68.87
2018-12-18T10:26:31.606Z,75.83
2018-12-18T10:28:59.053Z,78.17
2018-12-18T10:31:26.590Z,67.90
2018-12-18T10:33:54.033Z,81.97
2018-12-18T10:36:21.470Z,65.60
2018-12-18T10:38:48.935Z,83.27
2018-12-18T10:41:16.394Z,80.77
2018-12-18T10:43:43.946Z,90.57
2018-12-18T10:46:11.659Z,65.72
2018-12-18T10:48:39.451Z,78.43
2018-12-18T10:51:06.913Z,76.70
2018-12-18T10:53:34.426Z,68.47
2018-12-18T10:56:01.872Z,77.57
2018-12-18T10:58:29.432Z,71.47
2018-12-18T11:01:02.424Z,75.97
2018-12-18T11:03:30.107Z,80.50
2018-12-18T11:05:57.543Z,72.13
2018-12-18T11:08:25.086Z,70.85
2018-12-18T11:10:52.527Z,77.23
2018-12-18T11:13:20.240Z,94.03
2018-12-18T11:15:47.686Z,92.57
2018-12-18T11:18:15.782Z,91.33
2018-12-18T11:20:43.215Z,112.73
2018-12-18T11:23:10.673Z,112.35
2018-12-18T11:25:38.266Z,128.23
2018-12-18T11:28:05.695Z,112.72
2018-12-18T11:30:33.389Z,108.57
2018-12-18T11:33:00.832Z,107.27
2018-12-18T11:35:28.611Z,116.67
2018-12-18T11:37:56.511Z,142.30
2018-12-18T11:40:24.142Z,143.30
2018-12-18T11:42:51.586Z,140.70
2018-12-18T11:45:19.374Z,146.33
2018-12-18T11:47:46.812Z,127.13
2018-12-18T11:50:14.594Z,119.97
2018-12-18T11:52:42.052Z,108.30
2018-12-18T11:55:09.638Z,104.77
2018-12-18T11:57:37.080Z,103.13
2018-12-18T12:00:08.765Z,97.83
2018-12-18T12:02:40.021Z,108.50
2018-12-18T12:05:06.228Z,105.50
2018-12-18T12:07:33.668Z,96.78
2018-12-18T12:10:01.343Z,95.27
2018-12-18T12:12:28.786Z,87.93
2018-12-18T12:14:56.886Z,102.73
2018-12-18T12:17:24.694Z,93.87
2018-12-18T12:19:52.143Z,112.07
2018-12-18T12:22:19.878Z,98.87
2018-12-18T12:24:47.322Z,116.47
2018-12-18T12:27:20.965Z,89.28
2018-12-18T12:29:48.388Z,100.00
2018-12-18T12:32:16.178Z,82.50
2018-12-18T12:34:43.625Z,82.87
2018-12-18T12:37:11.391Z,77.30
2018-12-18T12:39:38.834Z,72.23
2018-12-18T12:42:06.629Z,75.40
2018-12-18T12:44:34.081Z,68.30
2018-12-18T12:47:01.862Z,74.03
2018-12-18T12:49:34.797Z,79.12
2018-12-18T12:52:02.513Z,68.80
2018-12-18T12:54:29.933Z,73.10
2018-12-18T12:56:57.830Z,47.33
2018-12-18T12:59:25.465Z,50.93
2018-12-18T13:01:52.930Z,39.23
2018-12-18T13:04:20.389Z,38.73
2018-12-18T13:06:47.837Z,37.67
2018-12-18T13:09:15.297Z,47.33
2018-12-18T13:11:42.838Z,34.70
2018-12-18T13:14:10.305Z,40.53
2018-12-18T13:16:37.749Z,42.57
2018-12-18T13:19:05.205Z,41.10
2018-12-18T13:21:32.654Z,47.53
2018-12-18T13:24:00.122Z,47.07
2018-12-18T13:26:27.574Z,62.03
2018-12-18T13:28:55.033Z,39.87
2018-12-18T13:31:22.486Z,46.77
2018-12-18T13:33:49.965Z,41.17
2018-12-18T13:36:17.427Z,41.87
2018-12-18T13:38:44.938Z,45.90
2018-12-18T13:41:12.518Z,48.68
2018-12-18T13:43:39.999Z,35.37
2018-12-18T13:46:07.564Z,47.47
2018-12-18T13:48:36.431Z,46.13
2018-12-18T13:51:04.157Z,47.07
2018-12-18T13:53:31.611Z,66.20
2018-12-18T13:55:59.062Z,83.97
2018-12-18T13:58:26.493Z,74.40
2018-12-18T14:00:53.968Z,80.63
2018-12-18T14:03:21.415Z,72.37
2018-12-18T14:05:48.885Z,58.40
2018-12-18T14:08:16.322Z,58.77
2018-12-18T14:10:43.779Z,56.20
2018-12-18T14:13:11.221Z,48.78
2018-12-18T14:15:38.683Z,30.50
2018-12-18T14:18:06.110Z,31.17
2018-12-18T14:20:33.943Z,25.97
2018-12-18T14:23:01.377Z,23.97
2018-12-18T14:25:29.003Z,33.07
2018-12-18T14:27:56.448Z,29.00
2018-12-18T14:30:24.073Z,37.07
2018-12-18T14:32:51.505Z,40.93
2018-12-18T14:35:18.977Z,38.47
2018-12-18T14:37:46.422Z,27.70
2018-12-18T14:40:13.893Z,30.37
2018-12-18T14:42:41.347Z,31.13
2018-12-18T14:45:08.816Z,35.27
2018-12-18T14:47:36.271Z,38.00
2018-12-18T14:50:04.876Z,28.83
2018-12-18T14:52:32.336Z,30.93
2018-12-18T14:54:59.783Z,31.73
2018-12-18T14:57:27.262Z,33.42
2018-12-18T14:59:54.709Z,38.23
2018-12-18T15:02:22.176Z,35.67
2018-12-18T15:04:49.630Z,28.00
2018-12-18T15:07:17.094Z,39.60
2018-12-18T15:09:44.541Z,27.93
2018-12-18T15:12:12.005Z,31.47
2018-12-18T15:14:39.442Z,32.57
2018-12-18T15:17:06.917Z,25.03
2018-12-18T15:19:34.357Z,33.02
2018-12-18T15:22:01.831Z,34.33
2018-12-18T15:24:29.277Z,29.82
2018-12-18T15:26:56.741Z,29.40
2018-12-18T15:29:24.193Z,33.80
2018-12-18T15:31:51.751Z,30.97
2018-12-18T15:34:19.208Z,35.77
2018-12-18T15:36:46.745Z,32.87
2018-12-18T15:39:14.217Z,30.90
2018-12-18T15:41:41.666Z,24.00
2018-12-18T15:44:09.157Z,30.23
2018-12-18T15:46:36.599Z,32.80
2018-12-18T15:49:04.081Z,28.30
2018-12-18T15:51:31.538Z,25.95
2018-12-18T15:53:58.999Z,27.40
2018-12-18T15:56:26.514Z,23.43
2018-12-18T15:58:53.991Z,28.33
2018-12-18T16:01:21.439Z,42.73
2018-12-18T16:03:48.899Z,33.57
2018-12-18T16:06:16.353Z,29.95
2018-12-18T16:08:43.817Z,29.43
2018-12-18T16:11:11.260Z,44.33
2018-12-18T16:13:38.730Z,29.97
2018-12-18T16:16:06.466Z,39.07
2018-12-18T16:18:33.932Z,27.52
2018-12-18T16:21:01.390Z,29.33
2018-12-18T16:23:28.859Z,32.63
2018-12-18T16:25:57.831Z,31.20
2018-12-18T16:28:25.312Z,40.57
2018-12-18T16:30:52.770Z,35.27
2018-12-18T16:33:20.222Z,28.90
2018-12-18T16:35:47.711Z,32.00
2018-12-18T16:38:15.159Z,35.83
2018-12-18T16:40:42.621Z,31.07
2018-12-18T16:43:10.062Z,41.03
2018-12-18T16:45:37.538Z,38.17
2018-12-18T16:48:04.990Z,29.60
2018-12-18T16:50:32.457Z,27.40
2018-12-18T16:52:59.934Z,30.97
2018-12-18T16:55:27.391Z,52.30
2018-12-18T16:57:54.842Z,57.53
2018-12-18T17:00:22.310Z,53.47
2018-12-18T17:02:49.768Z,37.85
2018-12-18T17:05:17.237Z,29.80
2018-12-18T17:07:44.696Z,26.47
2018-12-18T17:10:12.263Z,25.20
2018-12-18T17:12:41.730Z,30.40
2018-12-18T17:15:09.200Z,34.48
2018-12-18T17:17:36.660Z,35.33
2018-12-18T17:20:05.122Z,34.80
2018-12-18T17:22:32.598Z,45.33
2018-12-18T17:25:00.059Z,31.10
2018-12-18T17:27:27.530Z,52.43
2018-12-18T17:29:54.986Z,38.57
2018-12-18T17:32:22.456Z,41.20
2018-12-18T17:34:49.930Z,36.63
2018-12-18T17:37:17.387Z,47.83
2018-12-18T17:39:44.863Z,41.37
2018-12-18T17:42:12.395Z,38.73
2018-12-18T17:44:41.118Z,34.43
2018-12-18T17:47:08.942Z,45.73
2018-12-18T17:49:36.405Z,35.73
2018-12-18T17:52:03.947Z,33.90
2018-12-18T17:54:32.260Z,40.73
2018-12-18T17:56:59.726Z,33.50
2018-12-18T17:59:27.177Z,41.60
2018-12-18T18:01:54.622Z,37.35
2018-12-18T18:04:22.088Z,36.93
2018-12-18T18:06:49.545Z,35.08
2018-12-18T18:09:17.335Z,35.80
2018-12-18T18:11:44.789Z,29.93
2018-12-18T18:14:12.272Z,37.38
2018-12-18T18:16:39.718Z,32.65
2018-12-18T18:19:07.186Z,30.60
2018-12-18T18:21:34.634Z,32.58
2018-12-18T18:24:02.103Z,31.43
2018-12-18T18:26:29.552Z,42.67
2018-12-18T18:28:57.038Z,31.60
2018-12-18T18:31:24.502Z,59.50
2018-12-18T18:33:51.967Z,77.13
2018-12-18T18:36:19.419Z,45.40
2018-12-18T18:38:46.899Z,31.02
2018-12-18T18:41:14.346Z,31.55
2018-12-18T18:43:41.811Z,27.47
2018-12-18T18:46:09.249Z,29.80
2018-12-18T18:48:36.968Z,25.00
2018-12-18T18:51:04.439Z,28.70
2018-12-18T18:53:31.886Z,22.82
2018-12-18T18:55:59.355Z,19.80
2018-12-18T18:58:26.810Z,19.13
2018-12-18T19:00:54.284Z,23.63
2018-12-18T19:03:21.754Z,21.37
2018-12-18T19:05:49.253Z,24.80
2018-12-18T19:08:16.702Z,24.00
2018-12-18T19:10:44.187Z,24.27
2018-12-18T19:13:11.660Z,22.50
2018-12-18T19:15:39.114Z,17.87
2018-12-18T19:18:06.590Z,25.70
2018-12-18T19:20:34.062Z,22.93
2018-12-18T19:23:01.522Z,41.05
2018-12-18T19:25:29.018Z,25.93
2018-12-18T19:27:56.619Z,21.37
2018-12-18T19:30:24.125Z,21.82
2018-12-18T19:32:51.662Z,24.87
2018-12-18T19:35:19.130Z,27.77
2018-12-18T19:37:46.694Z,28.52
2018-12-18T19:40:14.158Z,24.43
2018-12-18T19:42:41.609Z,42.47
2018-12-18T19:45:09.050Z,27.00
2018-12-18T19:47:36.541Z,27.73
2018-12-18T19:50:04.642Z,24.65
2018-12-18T19:52:32.132Z,28.90
2018-12-18T19:54:59.581Z,23.93
2018-12-18T19:57:27.041Z,26.12
2018-12-18T19:59:54.483Z,24.93
2018-12-18T20:02:21.947Z,28.20
2018-12-18T20:04:49.426Z,23.20
2018-12-18T20:07:16.893Z,26.77
2018-12-18T20:09:44.373Z,33.90
2018-12-18T20:12:11.869Z,23.60
2018-12-18T20:14:39.729Z,28.37
2018-12-18T20:17:07.683Z,22.58
2018-12-18T20:19:35.542Z,22.43
2018-12-18T20:22:02.993Z,22.97
2018-12-18T20:24:30.515Z,23.30
2018-12-18T20:26:58.037Z,22.40
2018-12-18T20:29:25.501Z,21.67
2018-12-18T20:31:52.960Z,23.93
2018-12-18T20:34:20.486Z,25.33
2018-12-18T20:36:47.929Z,17.90
2018-12-18T20:39:15.421Z,16.07
2018-12-18T20:41:42.870Z,29.83
2018-12-18T20:44:10.325Z,22.50
2018-12-18T20:46:37.773Z,14.73
2018-12-18T20:49:05.241Z,14.50
2018-12-18T20:51:32.681Z,20.13
2018-12-18T20:54:00.149Z,23.47
2018-12-18T20:56:27.615Z,21.47
2018-12-18T20:58:55.238Z,17.93
2018-12-18T21:01:22.707Z,21.47
2018-12-18T21:03:50.234Z,25.57
2018-12-18T21:06:17.686Z,18.63
2018-12-18T21:08:45.132Z,20.60
2018-12-18T21:11:12.677Z,18.93
2018-12-18T21:13:40.139Z,17.37
2018-12-18T21:16:07.608Z,18.33
2018-12-18T21:18:35.181Z,23.30
2018-12-18T21:21:03.543Z,21.90
2018-12-18T21:23:31.001Z,23.33
2018-12-18T21:25:58.470Z,19.97
2018-12-18T21:28:25.927Z,20.67
2018-12-18T21:30:53.402Z,21.50
2018-12-18T21:33:21.000Z,27.47
2018-12-18T21:35:48.557Z,36.97
2018-12-18T21:38:16.034Z,32.42
2018-12-18T21:40:43.489Z,31.83
2018-12-18T21:43:10.958Z,37.30
2018-12-18T21:45:38.409Z,32.23
2018-12-18T21:48:05.887Z,38.47
2018-12-18T21:50:33.329Z,32.80
2018-12-18T21:53:00.793Z,35.93
2018-12-18T21:55:28.247Z,31.07
2018-12-18T21:57:55.714Z,30.50
2018-12-18T22:00:23.166Z,26.25
2018-12-18T22:02:51.487Z,30.10
2018-12-18T22:05:19.314Z,37.20
2018-12-18T22:07:46.777Z,30.70
2018-12-18T22:10:14.237Z,33.17
2018-12-18T22:12:41.706Z,35.30
2018-12-18T22:15:09.155Z,28.23
2018-12-18T22:17:36.619Z,37.17
2018-12-18T22:20:05.388Z,30.67
2018-12-18T22:22:32.849Z,37.57
2018-12-18T22:25:00.322Z,37.83
2018-12-18T22:27:27.770Z,36.85
2018-12-18T22:29:55.244Z,39.03
2018-12-18T22:32:22.699Z,46.58
2018-12-18T22:34:50.165Z,36.87
2018-12-18T22:37:17.607Z,39.67
2018-12-18T22:39:45.066Z,57.60
2018-12-18T22:42:12.513Z,46.40
2018-12-18T22:44:39.973Z,38.87
2018-12-18T22:47:07.417Z,31.70
2018-12-18T22:49:34.884Z,35.90
2018-12-18T22:52:02.341Z,36.42
2018-12-18T22:54:29.802Z,43.27
2018-12-18T22:56:57.254Z,35.37
2018-12-18T22:59:24.715Z,38.83
2018-12-18T23:01:52.166Z,31.77
2018-12-18T23:04:19.629Z,38.63
2018-12-18T23:06:47.078Z,30.40
2018-12-18T23:09:15.119Z,35.93
2018-12-18T23:11:42.594Z,40.60
2018-12-18T23:14:10.039Z,35.90
2018-12-18T23:16:37.505Z,44.10
2018-12-18T23:19:04.954Z,47.37
2018-12-18T23:21:32.540Z,33.57
2018-12-18T23:23:59.997Z,38.83
2018-12-18T23:26:27.464Z,34.80
2018-12-18T23:28:54.913Z,39.10
2018-12-18T23:31:22.385Z,31.60
2018-12-18T23:33:49.829Z,33.10
2018-12-18T23:36:17.302Z,32.47
2018-12-18T23:38:44.773Z,26.35
2018-12-18T23:41:12.437Z,25.97
2018-12-18T23:43:39.896Z,64.30
2018-12-18T23:46:07.357Z,24.20
2018-12-18T23:48:39.708Z,26.43
2018-12-18T23:51:04.492Z,20.30
2018-12-18T23:53:31.945Z,25.25
2018-12-18T23:55:59.410Z,23.13
2018-12-18T23:58:26.858Z,18.45
